sensor_id;sensor_type;location;lat;lon;timestamp;P1;durP1;ratioP1;P2;durP2;ratioP2
11510;SDS011;5812;48.864;9.190;2022-12-20T00:00:44;11.17;;;11.17;;
11510;SDS011;5812;48.864;9.190;2022-12-20T00:03:10;11.83;;;11.83;;
11510;SDS011;5812;48.864;9.190;2022-12-20T00:05:36;13.03;;;12.97;;
11510;SDS011;5812;48.864;9.190;2022-12-20T00:08:06;11.93;;;11.93;;
11510;SDS011;5812;48.864;9.190;2022-12-20T00:10:40;12.93;;;12.83;;
11510;SDS011;5812;48.864;9.190;2022-12-20T00:13:07;13.20;;;13.13;;
11510;SDS011;5812;48.864;9.190;2022-12-20T00:15:33;12.23;;;12.23;;
11510;SDS011;5812;48.864;9.190;2022-12-20T00:18:00;12.17;;;12.17;;
11510;SDS011;5812;48.864;9.190;2022-12-20T00:20:26;12.90;;;12.80;;
11510;SDS011;5812;48.864;9.190;2022-12-20T00:22:53;12.50;;;12.50;;
11510;SDS011;5812;48.864;9.190;2022-12-20T00:25:19;12.03;;;12.03;;
11510;SDS011;5812;48.864;9.190;2022-12-20T00:27:46;12.27;;;12.17;;
11510;SDS011;5812;48.864;9.190;2022-12-20T00:30:12;12.17;;;12.17;;
11510;SDS011;5812;48.864;9.190;2022-12-20T00:32:38;12.80;;;12.70;;
11510;SDS011;5812;48.864;9.190;2022-12-20T00:35:04;12.07;;;12.07;;
11510;SDS011;5812;48.864;9.190;2022-12-20T00:37:30;11.90;;;11.90;;
11510;SDS011;5812;48.864;9.190;2022-12-20T00:39:55;11.83;;;11.83;;
11510;SDS011;5812;48.864;9.190;2022-12-20T00:42:21;11.40;;;11.40;;
11510;SDS011;5812;48.864;9.190;2022-12-20T00:44:47;12.10;;;12.10;;
11510;SDS011;5812;48.864;9.190;2022-12-20T00:47:12;11.73;;;11.70;;
11510;SDS011;5812;48.864;9.190;2022-12-20T00:49:38;12.27;;;12.27;;
11510;SDS011;5812;48.864;9.190;2022-12-20T00:52:04;11.73;;;11.73;;
11510;SDS011;5812;48.864;9.190;2022-12-20T00:54:30;11.90;;;11.90;;
11510;SDS011;5812;48.864;9.190;2022-12-20T00:56:55;11.23;;;11.23;;
11510;SDS011;5812;48.864;9.190;2022-12-20T00:59:21;13.30;;;13.20;;
11510;SDS011;5812;48.864;9.190;2022-12-20T01:01:46;12.13;;;12.13;;
11510;SDS011;5812;48.864;9.190;2022-12-20T01:04:12;13.57;;;13.47;;
11510;SDS011;5812;48.864;9.190;2022-12-20T01:06:38;12.00;;;12.00;;
11510;SDS011;5812;48.864;9.190;2022-12-20T01:09:03;12.87;;;12.77;;
11510;SDS011;5812;48.864;9.190;2022-12-20T01:11:30;11.73;;;11.73;;
11510;SDS011;5812;48.864;9.190;2022-12-20T01:13:59;12.90;;;12.90;;
11510;SDS011;5812;48.864;9.190;2022-12-20T01:16:34;13.23;;;13.13;;
11510;SDS011;5812;48.864;9.190;2022-12-20T01:19:02;13.23;;;13.20;;
11510;SDS011;5812;48.864;9.190;2022-12-20T01:21:29;13.47;;;13.37;;
11510;SDS011;5812;48.864;9.190;2022-12-20T01:23:54;12.13;;;12.13;;
11510;SDS011;5812;48.864;9.190;2022-12-20T01:26:21;12.20;;;12.10;;
11510;SDS011;5812;48.864;9.190;2022-12-20T01:28:50;12.73;;;12.73;;
11510;SDS011;5812;48.864;9.190;2022-12-20T01:31:17;12.43;;;12.37;;
11510;SDS011;5812;48.864;9.190;2022-12-20T01:33:44;12.93;;;12.90;;
11510;SDS011;5812;48.864;9.190;2022-12-20T01:36:15;12.77;;;12.73;;
11510;SDS011;5812;48.864;9.190;2022-12-20T01:38:42;12.83;;;12.83;;
11510;SDS011;5812;48.864;9.190;2022-12-20T01:41:12;12.77;;;12.77;;
11510;SDS011;5812;48.864;9.190;2022-12-20T01:43:56;12.80;;;12.70;;
11510;SDS011;5812;48.864;9.190;2022-12-20T01:46:25;11.73;;;11.73;;
11510;SDS011;5812;48.864;9.190;2022-12-20T01:48:54;13.50;;;13.47;;
11510;SDS011;5812;48.864;9.190;2022-12-20T01:51:26;12.20;;;12.10;;
11510;SDS011;5812;48.864;9.190;2022-12-20T01:53:55;12.33;;;12.23;;
11510;SDS011;5812;48.864;9.190;2022-12-20T01:56:26;12.60;;;12.50;;
11510;SDS011;5812;48.864;9.190;2022-12-20T01:58:52;12.73;;;12.70;;
11510;SDS011;5812;48.864;9.190;2022-12-20T02:01:21;13.13;;;13.03;;
11510;SDS011;5812;48.864;9.190;2022-12-20T02:03:48;13.23;;;13.13;;
11510;SDS011;5812;48.864;9.190;2022-12-20T02:06:16;12.53;;;12.43;;
11510;SDS011;5812;48.864;9.190;2022-12-20T02:08:47;12.17;;;12.17;;
11510;SDS011;5812;48.864;9.190;2022-12-20T02:14:12;12.87;;;12.87;;
11510;SDS011;5812;48.864;9.190;2022-12-20T02:16:34;11.70;;;11.70;;
11510;SDS011;5812;48.864;9.190;2022-12-20T02:19:09;11.60;;;11.60;;
11510;SDS011;5812;48.864;9.190;2022-12-20T02:21:44;11.97;;;11.97;;
11510;SDS011;5812;48.864;9.190;2022-12-20T02:24:25;12.20;;;12.10;;
11510;SDS011;5812;48.864;9.190;2022-12-20T02:30:21;11.83;;;11.83;;
11510;SDS011;5812;48.864;9.190;2022-12-20T02:33:24;12.13;;;12.13;;
11510;SDS011;5812;48.864;9.190;2022-12-20T02:35:44;11.77;;;11.77;;
11510;SDS011;5812;48.864;9.190;2022-12-20T02:41:28;12.23;;;12.23;;
11510;SDS011;5812;48.864;9.190;2022-12-20T02:44:13;12.37;;;12.27;;
11510;SDS011;5812;48.864;9.190;2022-12-20T02:47:01;12.23;;;12.23;;
11510;SDS011;5812;48.864;9.190;2022-12-20T02:49:30;12.13;;;12.13;;
11510;SDS011;5812;48.864;9.190;2022-12-20T02:51:57;12.60;;;12.50;;
11510;SDS011;5812;48.864;9.190;2022-12-20T02:54:26;11.57;;;11.57;;
11510;SDS011;5812;48.864;9.190;2022-12-20T02:57:10;12.03;;;12.03;;
11510;SDS011;5812;48.864;9.190;2022-12-20T02:59:57;12.30;;;12.30;;
11510;SDS011;5812;48.864;9.190;2022-12-20T03:02:28;10.93;;;10.93;;
11510;SDS011;5812;48.864;9.190;2022-12-20T03:05:14;11.87;;;11.87;;
11510;SDS011;5812;48.864;9.190;2022-12-20T03:07:41;12.33;;;12.23;;
11510;SDS011;5812;48.864;9.190;2022-12-20T03:10:07;11.60;;;11.60;;
11510;SDS011;5812;48.864;9.190;2022-12-20T03:12:33;11.57;;;11.57;;
11510;SDS011;5812;48.864;9.190;2022-12-20T03:14:58;11.60;;;11.60;;
11510;SDS011;5812;48.864;9.190;2022-12-20T03:17:24;11.33;;;11.33;;
11510;SDS011;5812;48.864;9.190;2022-12-20T03:19:50;11.57;;;11.57;;
11510;SDS011;5812;48.864;9.190;2022-12-20T03:22:15;12.03;;;11.93;;
11510;SDS011;5812;48.864;9.190;2022-12-20T03:24:41;11.73;;;11.73;;
11510;SDS011;5812;48.864;9.190;2022-12-20T03:27:06;11.80;;;11.80;;
11510;SDS011;5812;48.864;9.190;2022-12-20T03:29:33;12.20;;;12.20;;
11510;SDS011;5812;48.864;9.190;2022-12-20T03:31:58;11.47;;;11.47;;
11510;SDS011;5812;48.864;9.190;2022-12-20T03:34:24;12.07;;;12.07;;
11510;SDS011;5812;48.864;9.190;2022-12-20T03:36:49;12.30;;;12.23;;
11510;SDS011;5812;48.864;9.190;2022-12-20T03:39:15;11.10;;;11.10;;
11510;SDS011;5812;48.864;9.190;2022-12-20T03:41:41;11.10;;;11.10;;
11510;SDS011;5812;48.864;9.190;2022-12-20T03:44:06;11.63;;;11.53;;
11510;SDS011;5812;48.864;9.190;2022-12-20T03:46:32;10.60;;;10.60;;
11510;SDS011;5812;48.864;9.190;2022-12-20T03:48:58;11.17;;;11.17;;
11510;SDS011;5812;48.864;9.190;2022-12-20T03:51:23;11.33;;;11.33;;
11510;SDS011;5812;48.864;9.190;2022-12-20T03:53:49;12.03;;;12.03;;
11510;SDS011;5812;48.864;9.190;2022-12-20T03:56:15;11.23;;;11.23;;
11510;SDS011;5812;48.864;9.190;2022-12-20T03:58:40;11.93;;;11.93;;
11510;SDS011;5812;48.864;9.190;2022-12-20T04:01:25;11.93;;;11.87;;
11510;SDS011;5812;48.864;9.190;2022-12-20T04:03:52;10.93;;;10.93;;
11510;SDS011;5812;48.864;9.190;2022-12-20T04:06:18;12.07;;;12.07;;
11510;SDS011;5812;48.864;9.190;2022-12-20T04:08:44;10.80;;;10.80;;
11510;SDS011;5812;48.864;9.190;2022-12-20T04:11:10;11.10;;;11.10;;
11510;SDS011;5812;48.864;9.190;2022-12-20T04:16:17;10.20;;;10.20;;
11510;SDS011;5812;48.864;9.190;2022-12-20T04:18:44;10.87;;;10.87;;
11510;SDS011;5812;48.864;9.190;2022-12-20T04:21:10;12.40;;;12.30;;
11510;SDS011;5812;48.864;9.190;2022-12-20T04:23:37;11.37;;;11.37;;
11510;SDS011;5812;48.864;9.190;2022-12-20T04:26:04;11.50;;;11.50;;
11510;SDS011;5812;48.864;9.190;2022-12-20T04:28:31;10.57;;;10.57;;
11510;SDS011;5812;48.864;9.190;2022-12-20T04:30:57;9.93;;;9.93;;
11510;SDS011;5812;48.864;9.190;2022-12-20T04:33:22;11.30;;;11.30;;
11510;SDS011;5812;48.864;9.190;2022-12-20T04:35:49;10.87;;;10.87;;
11510;SDS011;5812;48.864;9.190;2022-12-20T04:38:16;10.43;;;10.43;;
11510;SDS011;5812;48.864;9.190;2022-12-20T04:40:42;10.97;;;10.97;;
11510;SDS011;5812;48.864;9.190;2022-12-20T04:43:08;10.20;;;10.20;;
11510;SDS011;5812;48.864;9.190;2022-12-20T04:45:34;10.23;;;10.23;;
11510;SDS011;5812;48.864;9.190;2022-12-20T04:47:59;10.37;;;10.37;;
11510;SDS011;5812;48.864;9.190;2022-12-20T04:50:25;9.60;;;9.60;;
11510;SDS011;5812;48.864;9.190;2022-12-20T04:52:50;9.67;;;9.67;;
11510;SDS011;5812;48.864;9.190;2022-12-20T04:55:38;11.17;;;11.17;;
11510;SDS011;5812;48.864;9.190;2022-12-20T04:58:04;9.70;;;9.70;;
11510;SDS011;5812;48.864;9.190;2022-12-20T05:00:30;10.03;;;10.03;;
11510;SDS011;5812;48.864;9.190;2022-12-20T05:02:56;10.50;;;10.50;;
11510;SDS011;5812;48.864;9.190;2022-12-20T05:05:22;10.43;;;10.43;;
11510;SDS011;5812;48.864;9.190;2022-12-20T05:07:47;9.50;;;9.50;;
11510;SDS011;5812;48.864;9.190;2022-12-20T05:10:14;10.67;;;10.67;;
11510;SDS011;5812;48.864;9.190;2022-12-20T05:12:39;9.90;;;9.90;;
11510;SDS011;5812;48.864;9.190;2022-12-20T05:15:05;9.87;;;9.87;;
11510;SDS011;5812;48.864;9.190;2022-12-20T05:17:32;9.73;;;9.73;;
11510;SDS011;5812;48.864;9.190;2022-12-20T05:19:58;9.73;;;9.73;;
11510;SDS011;5812;48.864;9.190;2022-12-20T05:22:23;10.23;;;10.23;;
11510;SDS011;5812;48.864;9.190;2022-12-20T05:25:10;10.47;;;10.47;;
11510;SDS011;5812;48.864;9.190;2022-12-20T05:27:55;9.83;;;9.83;;
11510;SDS011;5812;48.864;9.190;2022-12-20T05:30:21;9.57;;;9.57;;
11510;SDS011;5812;48.864;9.190;2022-12-20T05:32:46;9.97;;;9.97;;
11510;SDS011;5812;48.864;9.190;2022-12-20T05:35:12;10.47;;;10.47;;
11510;SDS011;5812;48.864;9.190;2022-12-20T05:37:38;9.77;;;9.77;;
11510;SDS011;5812;48.864;9.190;2022-12-20T05:40:04;8.17;;;8.17;;
11510;SDS011;5812;48.864;9.190;2022-12-20T05:42:30;8.93;;;8.93;;
11510;SDS011;5812;48.864;9.190;2022-12-20T05:44:56;8.40;;;8.40;;
11510;SDS011;5812;48.864;9.190;2022-12-20T05:47:22;8.53;;;8.53;;
11510;SDS011;5812;48.864;9.190;2022-12-20T05:49:47;8.30;;;8.30;;
11510;SDS011;5812;48.864;9.190;2022-12-20T05:52:13;9.10;;;9.10;;
11510;SDS011;5812;48.864;9.190;2022-12-20T05:54:38;9.23;;;9.23;;
11510;SDS011;5812;48.864;9.190;2022-12-20T05:57:04;8.60;;;8.60;;
11510;SDS011;5812;48.864;9.190;2022-12-20T05:59:29;8.80;;;8.80;;
11510;SDS011;5812;48.864;9.190;2022-12-20T06:01:55;9.43;;;9.43;;
11510;SDS011;5812;48.864;9.190;2022-12-20T06:04:20;8.37;;;8.37;;
11510;SDS011;5812;48.864;9.190;2022-12-20T06:06:46;9.47;;;9.47;;
11510;SDS011;5812;48.864;9.190;2022-12-20T06:09:12;9.00;;;9.00;;
11510;SDS011;5812;48.864;9.190;2022-12-20T06:11:37;8.70;;;8.70;;
11510;SDS011;5812;48.864;9.190;2022-12-20T06:14:03;8.97;;;8.97;;
11510;SDS011;5812;48.864;9.190;2022-12-20T06:16:29;8.40;;;8.40;;
11510;SDS011;5812;48.864;9.190;2022-12-20T06:18:54;8.63;;;8.63;;
11510;SDS011;5812;48.864;9.190;2022-12-20T06:21:20;9.47;;;9.47;;
11510;SDS011;5812;48.864;9.190;2022-12-20T06:23:46;9.33;;;9.33;;
11510;SDS011;5812;48.864;9.190;2022-12-20T06:26:12;8.40;;;8.40;;
11510;SDS011;5812;48.864;9.190;2022-12-20T06:28:38;8.53;;;8.53;;
11510;SDS011;5812;48.864;9.190;2022-12-20T06:31:07;9.57;;;9.57;;
11510;SDS011;5812;48.864;9.190;2022-12-20T06:33:34;8.27;;;8.27;;
11510;SDS011;5812;48.864;9.190;2022-12-20T06:36:00;9.07;;;9.07;;
11510;SDS011;5812;48.864;9.190;2022-12-20T06:38:26;9.37;;;9.37;;
11510;SDS011;5812;48.864;9.190;2022-12-20T06:40:52;9.43;;;9.43;;
11510;SDS011;5812;48.864;9.190;2022-12-20T06:43:18;9.07;;;9.07;;
11510;SDS011;5812;48.864;9.190;2022-12-20T06:45:43;9.77;;;9.77;;
11510;SDS011;5812;48.864;9.190;2022-12-20T06:48:09;10.30;;;10.30;;
11510;SDS011;5812;48.864;9.190;2022-12-20T06:50:38;9.53;;;9.53;;
11510;SDS011;5812;48.864;9.190;2022-12-20T06:53:04;8.97;;;8.97;;
11510;SDS011;5812;48.864;9.190;2022-12-20T06:55:29;8.47;;;8.47;;
11510;SDS011;5812;48.864;9.190;2022-12-20T06:57:55;8.40;;;8.40;;
11510;SDS011;5812;48.864;9.190;2022-12-20T07:00:21;8.47;;;8.47;;
11510;SDS011;5812;48.864;9.190;2022-12-20T07:02:47;7.63;;;7.63;;
11510;SDS011;5812;48.864;9.190;2022-12-20T07:05:12;8.53;;;8.53;;
11510;SDS011;5812;48.864;9.190;2022-12-20T07:07:38;7.90;;;7.90;;
11510;SDS011;5812;48.864;9.190;2022-12-20T07:10:04;10.43;;;10.23;;
11510;SDS011;5812;48.864;9.190;2022-12-20T07:12:30;8.20;;;8.20;;
11510;SDS011;5812;48.864;9.190;2022-12-20T07:14:57;7.97;;;7.97;;
11510;SDS011;5812;48.864;9.190;2022-12-20T07:17:23;8.20;;;8.20;;
11510;SDS011;5812;48.864;9.190;2022-12-20T07:19:49;8.80;;;8.80;;
11510;SDS011;5812;48.864;9.190;2022-12-20T07:22:15;7.60;;;7.60;;
11510;SDS011;5812;48.864;9.190;2022-12-20T07:24:40;8.30;;;8.30;;
11510;SDS011;5812;48.864;9.190;2022-12-20T07:27:06;7.83;;;7.83;;
11510;SDS011;5812;48.864;9.190;2022-12-20T07:29:32;8.37;;;8.37;;
11510;SDS011;5812;48.864;9.190;2022-12-20T07:31:57;8.20;;;8.20;;
11510;SDS011;5812;48.864;9.190;2022-12-20T07:34:23;8.53;;;8.53;;
11510;SDS011;5812;48.864;9.190;2022-12-20T07:36:49;8.77;;;8.77;;
11510;SDS011;5812;48.864;9.190;2022-12-20T07:39:14;8.53;;;8.53;;
11510;SDS011;5812;48.864;9.190;2022-12-20T07:41:40;9.03;;;9.03;;
11510;SDS011;5812;48.864;9.190;2022-12-20T07:44:06;8.33;;;8.33;;
11510;SDS011;5812;48.864;9.190;2022-12-20T07:46:32;8.83;;;8.83;;
11510;SDS011;5812;48.864;9.190;2022-12-20T07:48:58;7.90;;;7.90;;
11510;SDS011;5812;48.864;9.190;2022-12-20T07:51:25;8.17;;;8.10;;
11510;SDS011;5812;48.864;9.190;2022-12-20T07:53:56;9.50;;;9.50;;
11510;SDS011;5812;48.864;9.190;2022-12-20T07:56:25;12.40;;;12.40;;
11510;SDS011;5812;48.864;9.190;2022-12-20T07:58:53;13.30;;;13.20;;
11510;SDS011;5812;48.864;9.190;2022-12-20T08:01:24;10.23;;;10.23;;
11510;SDS011;5812;48.864;9.190;2022-12-20T08:03:51;10.00;;;10.00;;
11510;SDS011;5812;48.864;9.190;2022-12-20T08:06:21;8.10;;;8.10;;
11510;SDS011;5812;48.864;9.190;2022-12-20T08:08:48;8.63;;;8.63;;
11510;SDS011;5812;48.864;9.190;2022-12-20T08:11:18;8.20;;;8.20;;
11510;SDS011;5812;48.864;9.190;2022-12-20T08:13:47;7.60;;;7.60;;
11510;SDS011;5812;48.864;9.190;2022-12-20T08:16:14;7.50;;;7.50;;
11510;SDS011;5812;48.864;9.190;2022-12-20T08:18:39;6.97;;;6.97;;
11510;SDS011;5812;48.864;9.190;2022-12-20T08:21:05;7.70;;;7.70;;
11510;SDS011;5812;48.864;9.190;2022-12-20T08:23:31;8.00;;;8.00;;
11510;SDS011;5812;48.864;9.190;2022-12-20T08:25:59;7.10;;;7.10;;
11510;SDS011;5812;48.864;9.190;2022-12-20T08:28:25;5.97;;;5.97;;
11510;SDS011;5812;48.864;9.190;2022-12-20T08:30:50;7.20;;;7.20;;
11510;SDS011;5812;48.864;9.190;2022-12-20T08:33:16;6.20;;;6.20;;
11510;SDS011;5812;48.864;9.190;2022-12-20T08:35:42;6.50;;;6.50;;
11510;SDS011;5812;48.864;9.190;2022-12-20T08:38:07;6.83;;;6.83;;
11510;SDS011;5812;48.864;9.190;2022-12-20T08:40:33;6.30;;;6.30;;
11510;SDS011;5812;48.864;9.190;2022-12-20T08:42:58;6.80;;;6.80;;
11510;SDS011;5812;48.864;9.190;2022-12-20T08:45:24;6.33;;;6.33;;
11510;SDS011;5812;48.864;9.190;2022-12-20T08:47:49;6.07;;;6.07;;
11510;SDS011;5812;48.864;9.190;2022-12-20T08:50:15;6.33;;;6.33;;
11510;SDS011;5812;48.864;9.190;2022-12-20T08:52:41;7.33;;;7.33;;
11510;SDS011;5812;48.864;9.190;2022-12-20T08:55:06;7.67;;;7.67;;
11510;SDS011;5812;48.864;9.190;2022-12-20T08:57:32;6.70;;;6.70;;
11510;SDS011;5812;48.864;9.190;2022-12-20T08:59:58;7.20;;;7.20;;
11510;SDS011;5812;48.864;9.190;2022-12-20T09:02:23;6.50;;;6.50;;
11510;SDS011;5812;48.864;9.190;2022-12-20T09:04:50;6.30;;;6.30;;
11510;SDS011;5812;48.864;9.190;2022-12-20T09:07:16;6.63;;;6.63;;
11510;SDS011;5812;48.864;9.190;2022-12-20T09:09:41;6.63;;;6.63;;
11510;SDS011;5812;48.864;9.190;2022-12-20T09:12:07;6.17;;;6.17;;
11510;SDS011;5812;48.864;9.190;2022-12-20T09:14:32;5.87;;;5.87;;
11510;SDS011;5812;48.864;9.190;2022-12-20T09:16:58;5.63;;;5.63;;
11510;SDS011;5812;48.864;9.190;2022-12-20T09:19:23;5.37;;;5.37;;
11510;SDS011;5812;48.864;9.190;2022-12-20T09:21:49;5.93;;;5.93;;
11510;SDS011;5812;48.864;9.190;2022-12-20T09:24:15;5.37;;;5.37;;
11510;SDS011;5812;48.864;9.190;2022-12-20T09:26:41;5.57;;;5.57;;
11510;SDS011;5812;48.864;9.190;2022-12-20T09:29:06;6.50;;;6.50;;
11510;SDS011;5812;48.864;9.190;2022-12-20T09:31:32;5.27;;;5.27;;
11510;SDS011;5812;48.864;9.190;2022-12-20T09:33:58;5.87;;;5.87;;
11510;SDS011;5812;48.864;9.190;2022-12-20T09:36:24;5.63;;;5.63;;
11510;SDS011;5812;48.864;9.190;2022-12-20T09:38:52;5.90;;;5.90;;
11510;SDS011;5812;48.864;9.190;2022-12-20T09:43:53;6.17;;;6.17;;
11510;SDS011;5812;48.864;9.190;2022-12-20T09:46:20;5.67;;;5.67;;
11510;SDS011;5812;48.864;9.190;2022-12-20T09:48:47;5.77;;;5.77;;
11510;SDS011;5812;48.864;9.190;2022-12-20T09:56:58;5.90;;;5.90;;
11510;SDS011;5812;48.864;9.190;2022-12-20T09:59:42;6.03;;;6.03;;
11510;SDS011;5812;48.864;9.190;2022-12-20T10:02:12;5.10;;;5.10;;
11510;SDS011;5812;48.864;9.190;2022-12-20T10:04:47;5.97;;;5.97;;
11510;SDS011;5812;48.864;9.190;2022-12-20T10:15:18;5.83;;;5.83;;
11510;SDS011;5812;48.864;9.190;2022-12-20T10:23:41;5.10;;;5.10;;
11510;SDS011;5812;48.864;9.190;2022-12-20T10:26:24;5.13;;;5.13;;
11510;SDS011;5812;48.864;9.190;2022-12-20T10:28:50;4.83;;;4.83;;
11510;SDS011;5812;48.864;9.190;2022-12-20T10:31:16;5.30;;;5.30;;
11510;SDS011;5812;48.864;9.190;2022-12-20T10:33:43;5.17;;;5.17;;
11510;SDS011;5812;48.864;9.190;2022-12-20T10:38:52;5.20;;;5.20;;
11510;SDS011;5812;48.864;9.190;2022-12-20T10:46:37;4.70;;;4.70;;
11510;SDS011;5812;48.864;9.190;2022-12-20T10:51:55;4.97;;;4.97;;
11510;SDS011;5812;48.864;9.190;2022-12-20T10:54:36;5.30;;;5.30;;
11510;SDS011;5812;48.864;9.190;2022-12-20T10:57:18;5.70;;;5.70;;
11510;SDS011;5812;48.864;9.190;2022-12-20T11:02:26;5.60;;;5.60;;
11510;SDS011;5812;48.864;9.190;2022-12-20T11:05:02;5.13;;;5.13;;
11510;SDS011;5812;48.864;9.190;2022-12-20T11:07:52;4.20;;;4.20;;
11510;SDS011;5812;48.864;9.190;2022-12-20T11:12:55;4.87;;;4.87;;
11510;SDS011;5812;48.864;9.190;2022-12-20T11:15:25;5.70;;;5.70;;
11510;SDS011;5812;48.864;9.190;2022-12-20T11:17:53;5.37;;;5.37;;
11510;SDS011;5812;48.864;9.190;2022-12-20T11:20:42;6.60;;;6.60;;
11510;SDS011;5812;48.864;9.190;2022-12-20T11:23:25;5.73;;;5.73;;
11510;SDS011;5812;48.864;9.190;2022-12-20T11:37:23;4.87;;;4.87;;
11510;SDS011;5812;48.864;9.190;2022-12-20T11:45:50;5.17;;;5.17;;
11510;SDS011;5812;48.864;9.190;2022-12-20T11:51:21;5.20;;;5.20;;
11510;SDS011;5812;48.864;9.190;2022-12-20T11:54:01;5.27;;;5.27;;
11510;SDS011;5812;48.864;9.190;2022-12-20T11:56:35;4.67;;;4.67;;
11510;SDS011;5812;48.864;9.190;2022-12-20T11:59:11;6.20;;;6.20;;
11510;SDS011;5812;48.864;9.190;2022-12-20T12:02:13;5.47;;;5.47;;
11510;SDS011;5812;48.864;9.190;2022-12-20T12:07:46;5.53;;;5.53;;
11510;SDS011;5812;48.864;9.190;2022-12-20T12:10:18;5.30;;;5.30;;
11510;SDS011;5812;48.864;9.190;2022-12-20T12:13:22;5.37;;;5.37;;
11510;SDS011;5812;48.864;9.190;2022-12-20T12:18:41;6.63;;;6.63;;
11510;SDS011;5812;48.864;9.190;2022-12-20T12:21:09;6.20;;;6.20;;
11510;SDS011;5812;48.864;9.190;2022-12-20T12:26:30;6.97;;;6.97;;
11510;SDS011;5812;48.864;9.190;2022-12-20T12:28:59;7.27;;;7.27;;
11510;SDS011;5812;48.864;9.190;2022-12-20T12:31:49;6.47;;;6.47;;
11510;SDS011;5812;48.864;9.190;2022-12-20T12:37:04;6.57;;;6.57;;
11510;SDS011;5812;48.864;9.190;2022-12-20T12:45:27;6.07;;;6.07;;
11510;SDS011;5812;48.864;9.190;2022-12-20T12:51:06;7.17;;;7.17;;
11510;SDS011;5812;48.864;9.190;2022-12-20T12:53:48;6.40;;;6.40;;
11510;SDS011;5812;48.864;9.190;2022-12-20T13:09:18;5.23;;;5.23;;
11510;SDS011;5812;48.864;9.190;2022-12-20T13:11:46;5.40;;;5.40;;
11510;SDS011;5812;48.864;9.190;2022-12-20T13:16:41;4.77;;;4.77;;
11510;SDS011;5812;48.864;9.190;2022-12-20T13:19:15;4.37;;;4.37;;
11510;SDS011;5812;48.864;9.190;2022-12-20T13:21:41;4.60;;;4.60;;
11510;SDS011;5812;48.864;9.190;2022-12-20T13:40:20;4.40;;;4.40;;
11510;SDS011;5812;48.864;9.190;2022-12-20T13:42:55;4.37;;;4.37;;
11510;SDS011;5812;48.864;9.190;2022-12-20T13:45:24;5.03;;;5.03;;
11510;SDS011;5812;48.864;9.190;2022-12-20T13:47:52;5.00;;;5.00;;
11510;SDS011;5812;48.864;9.190;2022-12-20T13:50:23;5.50;;;5.50;;
11510;SDS011;5812;48.864;9.190;2022-12-20T13:52:52;6.17;;;6.17;;
11510;SDS011;5812;48.864;9.190;2022-12-20T13:55:32;7.07;;;7.07;;
11510;SDS011;5812;48.864;9.190;2022-12-20T13:58:19;6.17;;;6.17;;
11510;SDS011;5812;48.864;9.190;2022-12-20T14:00:46;4.77;;;4.77;;
11510;SDS011;5812;48.864;9.190;2022-12-20T14:03:31;4.50;;;4.50;;
11510;SDS011;5812;48.864;9.190;2022-12-20T14:05:59;4.13;;;4.13;;
11510;SDS011;5812;48.864;9.190;2022-12-20T14:08:33;5.07;;;5.07;;
11510;SDS011;5812;48.864;9.190;2022-12-20T14:11:12;5.10;;;5.10;;
11510;SDS011;5812;48.864;9.190;2022-12-20T14:13:56;4.30;;;4.30;;
11510;SDS011;5812;48.864;9.190;2022-12-20T14:16:24;4.90;;;4.90;;
11510;SDS011;5812;48.864;9.190;2022-12-20T14:19:02;4.17;;;4.17;;
11510;SDS011;5812;48.864;9.190;2022-12-20T14:21:29;4.13;;;4.13;;
11510;SDS011;5812;48.864;9.190;2022-12-20T14:23:58;4.30;;;4.30;;
11510;SDS011;5812;48.864;9.190;2022-12-20T14:26:39;4.03;;;4.03;;
11510;SDS011;5812;48.864;9.190;2022-12-20T14:29:23;3.83;;;3.83;;
11510;SDS011;5812;48.864;9.190;2022-12-20T14:32:00;4.33;;;4.33;;
11510;SDS011;5812;48.864;9.190;2022-12-20T14:34:27;4.07;;;4.07;;
11510;SDS011;5812;48.864;9.190;2022-12-20T14:39:57;4.30;;;4.30;;
11510;SDS011;5812;48.864;9.190;2022-12-20T14:42:35;4.70;;;4.70;;
11510;SDS011;5812;48.864;9.190;2022-12-20T14:45:04;4.97;;;4.97;;
11510;SDS011;5812;48.864;9.190;2022-12-20T14:47:33;4.60;;;4.60;;
11510;SDS011;5812;48.864;9.190;2022-12-20T14:50:02;4.77;;;4.77;;
11510;SDS011;5812;48.864;9.190;2022-12-20T14:54:57;4.43;;;4.43;;
11510;SDS011;5812;48.864;9.190;2022-12-20T15:08:15;5.53;;;5.53;;
11510;SDS011;5812;48.864;9.190;2022-12-20T15:13:33;5.60;;;5.60;;
11510;SDS011;5812;48.864;9.190;2022-12-20T15:16:01;4.73;;;4.73;;
11510;SDS011;5812;48.864;9.190;2022-12-20T15:18:29;4.67;;;4.67;;
11510;SDS011;5812;48.864;9.190;2022-12-20T15:21:02;4.93;;;4.93;;
11510;SDS011;5812;48.864;9.190;2022-12-20T15:23:30;5.60;;;5.60;;
11510;SDS011;5812;48.864;9.190;2022-12-20T15:25:57;5.60;;;5.60;;
11510;SDS011;5812;48.864;9.190;2022-12-20T15:28:24;6.07;;;6.07;;
11510;SDS011;5812;48.864;9.190;2022-12-20T15:30:50;5.43;;;5.43;;
11510;SDS011;5812;48.864;9.190;2022-12-20T15:35:46;5.43;;;5.43;;
11510;SDS011;5812;48.864;9.190;2022-12-20T15:38:16;6.80;;;6.80;;
11510;SDS011;5812;48.864;9.190;2022-12-20T15:40:44;5.70;;;5.70;;
11510;SDS011;5812;48.864;9.190;2022-12-20T15:43:15;5.80;;;5.80;;
11510;SDS011;5812;48.864;9.190;2022-12-20T15:45:44;6.07;;;6.07;;
11510;SDS011;5812;48.864;9.190;2022-12-20T15:48:16;4.93;;;4.93;;
11510;SDS011;5812;48.864;9.190;2022-12-20T15:50:47;6.47;;;6.47;;
11510;SDS011;5812;48.864;9.190;2022-12-20T15:53:18;5.93;;;5.93;;
11510;SDS011;5812;48.864;9.190;2022-12-20T15:55:51;7.77;;;7.77;;
11510;SDS011;5812;48.864;9.190;2022-12-20T15:58:18;16.07;;;15.97;;
11510;SDS011;5812;48.864;9.190;2022-12-20T16:00:44;12.23;;;12.13;;
11510;SDS011;5812;48.864;9.190;2022-12-20T16:03:14;11.10;;;11.00;;
11510;SDS011;5812;48.864;9.190;2022-12-20T16:05:48;15.97;;;15.87;;
11510;SDS011;5812;48.864;9.190;2022-12-20T16:08:15;11.10;;;11.10;;
11510;SDS011;5812;48.864;9.190;2022-12-20T16:10:42;10.87;;;10.87;;
11510;SDS011;5812;48.864;9.190;2022-12-20T16:13:13;8.73;;;8.73;;
11510;SDS011;5812;48.864;9.190;2022-12-20T16:15:39;6.77;;;6.77;;
11510;SDS011;5812;48.864;9.190;2022-12-20T16:18:05;5.87;;;5.87;;
11510;SDS011;5812;48.864;9.190;2022-12-20T16:20:31;5.90;;;5.90;;
11510;SDS011;5812;48.864;9.190;2022-12-20T16:22:57;5.70;;;5.70;;
11510;SDS011;5812;48.864;9.190;2022-12-20T16:25:25;5.33;;;5.33;;
11510;SDS011;5812;48.864;9.190;2022-12-20T16:27:53;6.90;;;6.90;;
11510;SDS011;5812;48.864;9.190;2022-12-20T16:30:19;7.20;;;7.20;;
11510;SDS011;5812;48.864;9.190;2022-12-20T16:32:45;5.63;;;5.63;;
11510;SDS011;5812;48.864;9.190;2022-12-20T16:37:56;6.40;;;6.40;;
11510;SDS011;5812;48.864;9.190;2022-12-20T16:40:23;6.20;;;6.20;;
11510;SDS011;5812;48.864;9.190;2022-12-20T16:42:50;6.07;;;6.07;;
11510;SDS011;5812;48.864;9.190;2022-12-20T16:45:17;6.67;;;6.67;;
11510;SDS011;5812;48.864;9.190;2022-12-20T16:47:45;5.90;;;5.90;;
11510;SDS011;5812;48.864;9.190;2022-12-20T16:50:11;7.07;;;7.07;;
11510;SDS011;5812;48.864;9.190;2022-12-20T16:52:37;5.60;;;5.60;;
11510;SDS011;5812;48.864;9.190;2022-12-20T16:55:03;6.03;;;6.03;;
11510;SDS011;5812;48.864;9.190;2022-12-20T16:57:29;5.50;;;5.50;;
11510;SDS011;5812;48.864;9.190;2022-12-20T16:59:54;6.43;;;6.43;;
11510;SDS011;5812;48.864;9.190;2022-12-20T17:02:30;6.30;;;6.30;;
11510;SDS011;5812;48.864;9.190;2022-12-20T17:04:57;5.63;;;5.63;;
11510;SDS011;5812;48.864;9.190;2022-12-20T17:07:24;5.87;;;5.87;;
11510;SDS011;5812;48.864;9.190;2022-12-20T17:09:49;6.50;;;6.50;;
11510;SDS011;5812;48.864;9.190;2022-12-20T17:12:17;7.10;;;7.10;;
11510;SDS011;5812;48.864;9.190;2022-12-20T17:14:44;6.80;;;6.80;;
11510;SDS011;5812;48.864;9.190;2022-12-20T17:17:10;6.17;;;6.17;;
11510;SDS011;5812;48.864;9.190;2022-12-20T17:19:35;6.30;;;6.30;;
11510;SDS011;5812;48.864;9.190;2022-12-20T17:22:01;7.10;;;7.10;;
11510;SDS011;5812;48.864;9.190;2022-12-20T17:24:27;7.53;;;7.53;;
11510;SDS011;5812;48.864;9.190;2022-12-20T17:26:53;7.37;;;7.37;;